sensor_id;sensor_type;location;lat;lon;timestamp;pressure;altitude;pressure_sealevel;temperature;humidity
47811;BME280;33575;52.600;7.318;2024-01-06T00:02:11;99984.27;;;3.36;100.00
47811;BME280;33575;52.600;7.318;2024-01-06T00:04:41;99989.19;;;3.29;100.00
47811;BME280;33575;52.600;7.318;2024-01-06T00:07:12;99994.62;;;3.43;100.00
47811;BME280;33575;52.600;7.318;2024-01-06T00:09:43;100000.99;;;3.37;100.00
47811;BME280;33575;52.600;7.318;2024-01-06T00:12:13;100006.08;;;3.15;100.00
47811;BME280;33575;52.600;7.318;2024-01-06T00:14:43;100011.02;;;3.13;100.00
47811;BME280;33575;52.600;7.318;2024-01-06T00:17:13;100014.75;;;3.28;100.00
47811;BME280;33575;52.600;7.318;2024-01-06T00:19:44;100016.96;;;3.37;100.00
47811;BME280;33575;52.600;7.318;2024-01-06T00:22:15;100022.21;;;3.19;100.00
47811;BME280;33575;52.600;7.318;2024-01-06T00:24:46;100026.58;;;2.95;100.00
47811;BME280;33575;52.600;7.318;2024-01-06T00:27:17;100030.92;;;2.82;100.00
47811;BME280;33575;52.600;7.318;2024-01-06T00:29:47;100035.33;;;2.68;99.79
47811;BME280;33575;52.600;7.318;2024-01-06T00:32:18;100038.18;;;2.61;99.86
47811;BME280;33575;52.600;7.318;2024-01-06T00:34:49;100040.94;;;2.45;100.00
47811;BME280;33575;52.600;7.318;2024-01-06T00:37:19;100038.74;;;2.46;100.00
47811;BME280;33575;52.600;7.318;2024-01-06T00:39:50;100045.18;;;2.38;100.00
47811;BME280;33575;52.600;7.318;2024-01-06T00:42:21;100048.36;;;2.31;100.00
47811;BME280;33575;52.600;7.318;2024-01-06T00:44:52;100048.73;;;2.32;100.00
47811;BME280;33575;52.600;7.318;2024-01-06T00:47:22;100053.02;;;2.34;100.00
47811;BME280;33575;52.600;7.318;2024-01-06T00:49:53;100058.53;;;2.36;100.00
47811;BME280;33575;52.600;7.318;2024-01-06T00:52:23;100061.24;;;2.43;100.00
47811;BME280;33575;52.600;7.318;2024-01-06T00:54:54;100064.76;;;2.48;100.00
47811;BME280;33575;52.600;7.318;2024-01-06T00:57:25;100062.82;;;2.46;100.00
47811;BME280;33575;52.600;7.318;2024-01-06T00:59:56;100067.22;;;2.28;100.00
47811;BME280;33575;52.600;7.318;2024-01-06T01:02:26;100073.82;;;2.41;100.00
47811;BME280;33575;52.600;7.318;2024-01-06T01:04:56;100076.06;;;2.50;100.00
47811;BME280;33575;52.600;7.318;2024-01-06T01:07:27;100073.44;;;2.55;100.00
47811;BME280;33575;52.600;7.318;2024-01-06T01:09:58;100076.88;;;2.64;100.00
47811;BME280;33575;52.600;7.318;2024-01-06T01:12:37;100082.96;;;2.69;100.00
47811;BME280;33575;52.600;7.318;2024-01-06T01:15:00;100086.08;;;2.74;100.00
47811;BME280;33575;52.600;7.318;2024-01-06T01:17:30;100090.45;;;2.75;100.00
47811;BME280;33575;52.600;7.318;2024-01-06T01:20:02;100096.76;;;2.57;100.00
47811;BME280;33575;52.600;7.318;2024-01-06T01:22:32;100100.66;;;2.51;100.00
47811;BME280;33575;52.600;7.318;2024-01-06T01:25:04;100100.38;;;2.42;100.00
47811;BME280;33575;52.600;7.318;2024-01-06T01:27:34;100108.38;;;2.43;100.00
47811;BME280;33575;52.600;7.318;2024-01-06T01:30:05;100111.09;;;2.51;100.00
47811;BME280;33575;52.600;7.318;2024-01-06T01:32:35;100117.43;;;2.42;100.00
47811;BME280;33575;52.600;7.318;2024-01-06T01:35:06;100123.72;;;2.43;100.00
47811;BME280;33575;52.600;7.318;2024-01-06T01:37:36;100127.86;;;2.28;100.00
47811;BME280;33575;52.600;7.318;2024-01-06T01:40:08;100131.67;;;2.12;100.00
47811;BME280;33575;52.600;7.318;2024-01-06T01:42:37;100130.95;;;2.05;100.00
47811;BME280;33575;52.600;7.318;2024-01-06T01:45:09;100133.95;;;2.03;100.00
47811;BME280;33575;52.600;7.318;2024-01-06T01:47:38;100136.34;;;1.94;100.00
47811;BME280;33575;52.600;7.318;2024-01-06T01:50:10;100135.74;;;2.07;100.00
47811;BME280;33575;52.600;7.318;2024-01-06T01:52:40;100137.05;;;1.91;100.00
47811;BME280;33575;52.600;7.318;2024-01-06T01:55:09;100134.72;;;1.89;100.00
47811;BME280;33575;52.600;7.318;2024-01-06T01:57:40;100141.93;;;1.74;100.00
47811;BME280;33575;52.600;7.318;2024-01-06T02:00:12;100144.59;;;1.77;100.00
47811;BME280;33575;52.600;7.318;2024-01-06T02:02:41;100146.03;;;1.93;100.00
47811;BME280;33575;52.600;7.318;2024-01-06T02:05:11;100154.13;;;1.89;100.00
47811;BME280;33575;52.600;7.318;2024-01-06T02:07:42;100154.85;;;1.94;100.00
47811;BME280;33575;52.600;7.318;2024-01-06T02:10:13;100159.75;;;1.94;100.00
47811;BME280;33575;52.600;7.318;2024-01-06T02:12:44;100165.70;;;1.94;100.00
47811;BME280;33575;52.600;7.318;2024-01-06T02:15:15;100174.38;;;2.02;100.00
47811;BME280;33575;52.600;7.318;2024-01-06T02:17:45;100177.93;;;2.02;100.00
47811;BME280;33575;52.600;7.318;2024-01-06T02:20:16;100182.90;;;2.02;100.00
47811;BME280;33575;52.600;7.318;2024-01-06T02:22:46;100186.49;;;2.03;100.00
47811;BME280;33575;52.600;7.318;2024-01-06T02:25:18;100190.07;;;2.03;100.00
47811;BME280;33575;52.600;7.318;2024-01-06T02:27:47;100187.13;;;1.89;100.00
47811;BME280;33575;52.600;7.318;2024-01-06T02:30:18;100190.74;;;1.91;100.00
47811;BME280;33575;52.600;7.318;2024-01-06T02:32:47;100189.42;;;1.80;100.00
47811;BME280;33575;52.600;7.318;2024-01-06T02:35:17;100190.83;;;1.86;100.00
47811;BME280;33575;52.600;7.318;2024-01-06T02:37:48;100194.11;;;1.65;100.00
47811;BME280;33575;52.600;7.318;2024-01-06T02:40:19;100201.01;;;1.71;100.00
47811;BME280;33575;52.600;7.318;2024-01-06T02:42:49;100204.64;;;1.59;100.00
47811;BME280;33575;52.600;7.318;2024-01-06T02:45:20;100204.98;;;1.55;100.00
47811;BME280;33575;52.600;7.318;2024-01-06T02:47:51;100208.13;;;1.59;100.00
47811;BME280;33575;52.600;7.318;2024-01-06T02:50:21;100212.06;;;1.35;100.00
47811;BME280;33575;52.600;7.318;2024-01-06T02:52:51;100211.72;;;1.38;100.00
47811;BME280;33575;52.600;7.318;2024-01-06T02:55:21;100216.34;;;1.50;100.00
47811;BME280;33575;52.600;7.318;2024-01-06T02:57:52;100216.16;;;1.26;100.00
47811;BME280;33575;52.600;7.318;2024-01-06T03:00:23;100219.08;;;1.37;100.00
47811;BME280;33575;52.600;7.318;2024-01-06T03:02:53;100221.40;;;1.30;100.00
47811;BME280;33575;52.600;7.318;2024-01-06T03:05:23;100225.53;;;1.00;100.00
47811;BME280;33575;52.600;7.318;2024-01-06T03:07:54;100225.64;;;1.17;100.00
47811;BME280;33575;52.600;7.318;2024-01-06T03:10:25;100229.62;;;0.95;100.00
47811;BME280;33575;52.600;7.318;2024-01-06T03:12:56;100232.30;;;1.05;100.00
47811;BME280;33575;52.600;7.318;2024-01-06T03:15:26;100229.31;;;1.27;100.00
47811;BME280;33575;52.600;7.318;2024-01-06T03:17:56;100233.18;;;1.34;100.00
47811;BME280;33575;52.600;7.318;2024-01-06T03:20:27;100237.46;;;1.42;100.00
47811;BME280;33575;52.600;7.318;2024-01-06T03:22:57;100238.47;;;1.44;100.00
47811;BME280;33575;52.600;7.318;2024-01-06T03:25:28;100242.78;;;1.37;100.00
47811;BME280;33575;52.600;7.318;2024-01-06T03:27:58;100244.92;;;1.42;100.00
47811;BME280;33575;52.600;7.318;2024-01-06T03:30:28;100249.33;;;1.47;100.00
47811;BME280;33575;52.600;7.318;2024-01-06T03:32:59;100253.17;;;1.48;100.00
47811;BME280;33575;52.600;7.318;2024-01-06T03:35:30;100259.20;;;1.50;100.00
47811;BME280;33575;52.600;7.318;2024-01-06T03:38:00;100263.28;;;1.40;100.00
47811;BME280;33575;52.600;7.318;2024-01-06T03:40:30;100268.91;;;1.40;100.00
47811;BME280;33575;52.600;7.318;2024-01-06T03:43:00;100270.77;;;1.36;100.00
47811;BME280;33575;52.600;7.318;2024-01-06T03:45:31;100277.77;;;1.37;100.00
47811;BME280;33575;52.600;7.318;2024-01-06T03:48:03;100278.37;;;1.32;100.00
47811;BME280;33575;52.600;7.318;2024-01-06T03:50:33;100283.49;;;1.36;100.00
47811;BME280;33575;52.600;7.318;2024-01-06T03:53:04;100294.56;;;1.34;100.00
47811;BME280;33575;52.600;7.318;2024-01-06T03:55:34;100300.47;;;1.24;100.00
47811;BME280;33575;52.600;7.318;2024-01-06T03:58:04;100304.08;;;1.17;100.00
47811;BME280;33575;52.600;7.318;2024-01-06T04:00:35;100304.05;;;1.16;100.00
47811;BME280;33575;52.600;7.318;2024-01-06T04:03:05;100308.24;;;1.09;100.00
47811;BME280;33575;52.600;7.318;2024-01-06T04:05:36;100311.96;;;1.17;100.00
47811;BME280;33575;52.600;7.318;2024-01-06T04:08:06;100314.46;;;1.07;100.00
47811;BME280;33575;52.600;7.318;2024-01-06T04:10:37;100322.19;;;1.14;100.00
47811;BME280;33575;52.600;7.318;2024-01-06T04:13:08;100324.39;;;0.93;100.00
47811;BME280;33575;52.600;7.318;2024-01-06T04:15:39;100326.10;;;1.16;100.00
47811;BME280;33575;52.600;7.318;2024-01-06T04:18:10;100332.35;;;0.85;100.00
47811;BME280;33575;52.600;7.318;2024-01-06T04:20:40;100334.77;;;0.99;100.00
47811;BME280;33575;52.600;7.318;2024-01-06T04:23:11;100334.29;;;0.98;100.00
47811;BME280;33575;52.600;7.318;2024-01-06T04:25:41;100336.18;;;0.88;100.00
47811;BME280;33575;52.600;7.318;2024-01-06T04:28:11;100339.87;;;0.87;100.00
47811;BME280;33575;52.600;7.318;2024-01-06T04:30:42;100339.08;;;0.96;100.00
47811;BME280;33575;52.600;7.318;2024-01-06T04:33:12;100342.05;;;1.03;100.00
47811;BME280;33575;52.600;7.318;2024-01-06T04:35:42;100345.57;;;0.98;100.00
47811;BME280;33575;52.600;7.318;2024-01-06T04:38:13;100340.73;;;0.97;100.00
47811;BME280;33575;52.600;7.318;2024-01-06T04:40:43;100344.61;;;0.74;100.00
47811;BME280;33575;52.600;7.318;2024-01-06T04:43:14;100342.12;;;0.76;100.00
47811;BME280;33575;52.600;7.318;2024-01-06T04:45:44;100347.82;;;0.80;100.00
47811;BME280;33575;52.600;7.318;2024-01-06T04:48:15;100350.68;;;0.71;100.00
47811;BME280;33575;52.600;7.318;2024-01-06T04:50:45;100351.24;;;0.70;100.00
47811;BME280;33575;52.600;7.318;2024-01-06T04:53:15;100351.87;;;0.73;100.00
47811;BME280;33575;52.600;7.318;2024-01-06T04:55:46;100352.60;;;0.67;100.00
47811;BME280;33575;52.600;7.318;2024-01-06T04:58:16;100356.51;;;0.40;100.00
47811;BME280;33575;52.600;7.318;2024-01-06T05:00:46;100355.67;;;0.45;100.00
47811;BME280;33575;52.600;7.318;2024-01-06T05:03:16;100360.95;;;0.38;100.00
47811;BME280;33575;52.600;7.318;2024-01-06T05:05:47;100363.30;;;0.48;100.00
47811;BME280;33575;52.600;7.318;2024-01-06T05:08:17;100371.43;;;0.59;100.00
47811;BME280;33575;52.600;7.318;2024-01-06T05:10:52;100369.44;;;0.48;100.00
47811;BME280;33575;52.600;7.318;2024-01-06T05:13:18;100375.43;;;0.69;100.00
47811;BME280;33575;52.600;7.318;2024-01-06T05:15:49;100379.49;;;0.72;100.00
47811;BME280;33575;52.600;7.318;2024-01-06T05:18:19;100384.58;;;0.66;100.00
47811;BME280;33575;52.600;7.318;2024-01-06T05:20:50;100390.13;;;0.68;100.00
47811;BME280;33575;52.600;7.318;2024-01-06T05:23:20;100389.58;;;0.71;100.00
47811;BME280;33575;52.600;7.318;2024-01-06T05:25:51;100395.44;;;0.73;100.00
47811;BME280;33575;52.600;7.318;2024-01-06T05:28:21;100396.87;;;0.41;100.00
47811;BME280;33575;52.600;7.318;2024-01-06T05:30:51;100403.22;;;0.37;100.00
47811;BME280;33575;52.600;7.318;2024-01-06T05:33:22;100397.85;;;0.46;100.00
47811;BME280;33575;52.600;7.318;2024-01-06T05:35:52;100401.36;;;0.50;100.00
47811;BME280;33575;52.600;7.318;2024-01-06T05:38:22;100406.01;;;0.59;100.00
47811;BME280;33575;52.600;7.318;2024-01-06T05:40:52;100416.31;;;0.55;100.00
47811;BME280;33575;52.600;7.318;2024-01-06T05:43:23;100422.62;;;0.57;100.00
47811;BME280;33575;52.600;7.318;2024-01-06T05:45:54;100424.11;;;0.52;100.00
47811;BME280;33575;52.600;7.318;2024-01-06T05:48:25;100427.85;;;0.47;100.00
47811;BME280;33575;52.600;7.318;2024-01-06T05:50:55;100434.35;;;0.36;100.00
47811;BME280;33575;52.600;7.318;2024-01-06T05:53:26;100439.03;;;0.50;100.00
47811;BME280;33575;52.600;7.318;2024-01-06T05:55:56;100444.96;;;0.46;100.00
47811;BME280;33575;52.600;7.318;2024-01-06T05:58:27;100446.27;;;0.51;100.00
47811;BME280;33575;52.600;7.318;2024-01-06T06:00:57;100453.02;;;0.41;100.00
47811;BME280;33575;52.600;7.318;2024-01-06T06:03:27;100460.50;;;0.51;100.00
47811;BME280;33575;52.600;7.318;2024-01-06T06:05:58;100462.15;;;0.60;100.00
47811;BME280;33575;52.600;7.318;2024-01-06T06:08:28;100465.85;;;0.64;100.00
47811;BME280;33575;52.600;7.318;2024-01-06T06:10:59;100470.28;;;0.72;100.00
47811;BME280;33575;52.600;7.318;2024-01-06T06:13:29;100473.74;;;0.74;100.00
47811;BME280;33575;52.600;7.318;2024-01-06T06:16:00;100484.34;;;0.57;100.00
47811;BME280;33575;52.600;7.318;2024-01-06T06:18:31;100487.48;;;0.54;100.00
47811;BME280;33575;52.600;7.318;2024-01-06T06:21:01;100494.22;;;0.53;100.00
47811;BME280;33575;52.600;7.318;2024-01-06T06:23:32;100500.01;;;0.54;100.00
47811;BME280;33575;52.600;7.318;2024-01-06T06:26:05;100503.61;;;0.69;100.00
47811;BME280;33575;52.600;7.318;2024-01-06T06:28:32;100508.90;;;0.67;100.00
47811;BME280;33575;52.600;7.318;2024-01-06T06:31:04;100514.52;;;0.46;98.93
47811;BME280;33575;52.600;7.318;2024-01-06T06:33:34;100515.58;;;0.31;100.00
47811;BME280;33575;52.600;7.318;2024-01-06T06:36:04;100520.50;;;0.23;100.00
47811;BME280;33575;52.600;7.318;2024-01-06T06:38:33;100521.74;;;0.23;99.78
47811;BME280;33575;52.600;7.318;2024-01-06T06:41:04;100519.84;;;0.12;100.00
47811;BME280;33575;52.600;7.318;2024-01-06T06:43:35;100524.83;;;-0.00;100.00
47811;BME280;33575;52.600;7.318;2024-01-06T06:46:05;100531.17;;;-0.05;100.00
47811;BME280;33575;52.600;7.318;2024-01-06T06:48:35;100534.03;;;-0.01;100.00
47811;BME280;33575;52.600;7.318;2024-01-06T06:51:06;100538.09;;;-0.00;100.00
47811;BME280;33575;52.600;7.318;2024-01-06T06:53:36;100543.12;;;0.07;100.00
47811;BME280;33575;52.600;7.318;2024-01-06T06:56:06;100547.54;;;0.04;100.00
47811;BME280;33575;52.600;7.318;2024-01-06T06:58:37;100551.45;;;0.05;100.00
47811;BME280;33575;52.600;7.318;2024-01-06T07:01:08;100561.46;;;0.02;100.00
47811;BME280;33575;52.600;7.318;2024-01-06T07:03:38;100565.65;;;0.13;100.00
47811;BME280;33575;52.600;7.318;2024-01-06T07:06:11;100573.07;;;0.34;100.00
47811;BME280;33575;52.600;7.318;2024-01-06T07:08:39;100578.86;;;0.23;100.00
47811;BME280;33575;52.600;7.318;2024-01-06T07:11:09;100582.30;;;0.15;100.00
47811;BME280;33575;52.600;7.318;2024-01-06T07:13:40;100588.10;;;0.24;100.00
47811;BME280;33575;52.600;7.318;2024-01-06T07:16:15;100589.09;;;0.17;100.00
47811;BME280;33575;52.600;7.318;2024-01-06T07:18:41;100592.51;;;0.09;100.00
47811;BME280;33575;52.600;7.318;2024-01-06T07:21:11;100598.69;;;0.15;100.00
47811;BME280;33575;52.600;7.318;2024-01-06T07:23:41;100602.60;;;0.05;100.00
47811;BME280;33575;52.600;7.318;2024-01-06T07:26:12;100605.77;;;0.07;100.00
47811;BME280;33575;52.600;7.318;2024-01-06T07:28:42;100609.99;;;0.13;100.00
47811;BME280;33575;52.600;7.318;2024-01-06T07:31:12;100612.85;;;0.12;100.00
47811;BME280;33575;52.600;7.318;2024-01-06T07:33:43;100619.95;;;-0.11;100.00
47811;BME280;33575;52.600;7.318;2024-01-06T07:36:13;100623.57;;;-0.11;100.00
47811;BME280;33575;52.600;7.318;2024-01-06T07:38:43;100626.45;;;0.00;100.00
47811;BME280;33575;52.600;7.318;2024-01-06T07:41:13;100626.87;;;0.22;100.00
47811;BME280;33575;52.600;7.318;2024-01-06T07:43:44;100633.08;;;0.21;100.00
47811;BME280;33575;52.600;7.318;2024-01-06T07:46:14;100637.78;;;0.08;99.24
47811;BME280;33575;52.600;7.318;2024-01-06T07:48:45;100639.44;;;-0.12;99.19
47811;BME280;33575;52.600;7.318;2024-01-06T07:51:15;100644.27;;;-0.26;100.00
47811;BME280;33575;52.600;7.318;2024-01-06T07:53:45;100646.31;;;-0.25;99.57
47811;BME280;33575;52.600;7.318;2024-01-06T07:56:16;100648.35;;;-0.33;99.67
47811;BME280;33575;52.600;7.318;2024-01-06T07:58:46;100649.77;;;-0.35;100.00
47811;BME280;33575;52.600;7.318;2024-01-06T08:01:16;100650.82;;;-0.33;100.00
47811;BME280;33575;52.600;7.318;2024-01-06T08:03:47;100653.67;;;-0.25;100.00
47811;BME280;33575;52.600;7.318;2024-01-06T08:06:18;100659.53;;;-0.29;100.00
47811;BME280;33575;52.600;7.318;2024-01-06T08:08:48;100665.11;;;-0.26;100.00
47811;BME280;33575;52.600;7.318;2024-01-06T08:11:18;100669.90;;;-0.24;100.00
47811;BME280;33575;52.600;7.318;2024-01-06T08:13:48;100678.38;;;-0.13;100.00
47811;BME280;33575;52.600;7.318;2024-01-06T08:16:18;100684.76;;;-0.08;100.00
47811;BME280;33575;52.600;7.318;2024-01-06T08:18:49;100683.62;;;-0.01;100.00
47811;BME280;33575;52.600;7.318;2024-01-06T08:21:19;100691.81;;;-0.00;100.00
47811;BME280;33575;52.600;7.318;2024-01-06T08:23:50;100698.25;;;-0.14;100.00
47811;BME280;33575;52.600;7.318;2024-01-06T08:26:19;100703.86;;;-0.09;100.00
47811;BME280;33575;52.600;7.318;2024-01-06T08:28:49;100701.62;;;-0.04;100.00
47811;BME280;33575;52.600;7.318;2024-01-06T08:31:20;100702.12;;;-0.02;100.00
47811;BME280;33575;52.600;7.318;2024-01-06T08:33:50;100705.21;;;-0.01;100.00
47811;BME280;33575;52.600;7.318;2024-01-06T08:36:20;100706.40;;;-0.10;100.00
47811;BME280;33575;52.600;7.318;2024-01-06T08:38:51;100710.86;;;-0.24;100.00
47811;BME280;33575;52.600;7.318;2024-01-06T08:41:21;100716.29;;;-0.12;100.00
47811;BME280;33575;52.600;7.318;2024-01-06T08:43:52;100726.53;;;-0.15;100.00
47811;BME280;33575;52.600;7.318;2024-01-06T08:46:22;100729.62;;;-0.13;100.00
47811;BME280;33575;52.600;7.318;2024-01-06T08:48:52;100728.72;;;-0.18;100.00
47811;BME280;33575;52.600;7.318;2024-01-06T08:51:23;100726.02;;;-0.16;100.00
47811;BME280;33575;52.600;7.318;2024-01-06T08:53:53;100727.97;;;-0.15;100.00
47811;BME280;33575;52.600;7.318;2024-01-06T08:56:24;100736.09;;;-0.22;100.00
47811;BME280;33575;52.600;7.318;2024-01-06T08:58:54;100739.41;;;-0.01;100.00
47811;BME280;33575;52.600;7.318;2024-01-06T09:01:25;100744.09;;;0.18;100.00
47811;BME280;33575;52.600;7.318;2024-01-06T09:03:55;100745.81;;;0.23;100.00
47811;BME280;33575;52.600;7.318;2024-01-06T09:06:25;100749.81;;;0.03;100.00
47811;BME280;33575;52.600;7.318;2024-01-06T09:08:56;100749.43;;;-0.11;100.00
47811;BME280;33575;52.600;7.318;2024-01-06T09:11:26;100751.39;;;-0.20;100.00
47811;BME280;33575;52.600;7.318;2024-01-06T09:13:56;100754.78;;;-0.28;100.00
47811;BME280;33575;52.600;7.318;2024-01-06T09:16:27;100757.75;;;-0.32;100.00
47811;BME280;33575;52.600;7.318;2024-01-06T09:18:58;100759.64;;;-0.31;100.00
47811;BME280;33575;52.600;7.318;2024-01-06T09:21:28;100760.62;;;-0.33;100.00
47811;BME280;33575;52.600;7.318;2024-01-06T09:23:58;100767.43;;;-0.39;100.00
47811;BME280;33575;52.600;7.318;2024-01-06T09:26:28;100772.52;;;-0.32;100.00
47811;BME280;33575;52.600;7.318;2024-01-06T09:28:59;100776.92;;;-0.23;100.00
47811;BME280;33575;52.600;7.318;2024-01-06T09:31:29;100782.80;;;-0.34;100.00
47811;BME280;33575;52.600;7.318;2024-01-06T09:34:00;100787.76;;;-0.17;100.00
47811;BME280;33575;52.600;7.318;2024-01-06T09:36:31;100787.25;;;-0.02;100.00
47811;BME280;33575;52.600;7.318;2024-01-06T09:39:00;100797.05;;;-0.06;100.00
47811;BME280;33575;52.600;7.318;2024-01-06T09:41:31;100797.57;;;-0.04;100.00
47811;BME280;33575;52.600;7.318;2024-01-06T09:44:01;100800.12;;;0.17;100.00
47811;BME280;33575;52.600;7.318;2024-01-06T09:46:31;100806.91;;;0.29;100.00
47811;BME280;33575;52.600;7.318;2024-01-06T09:49:02;100811.10;;;0.28;100.00
47811;BME280;33575;52.600;7.318;2024-01-06T09:51:34;100817.59;;;0.16;100.00
47811;BME280;33575;52.600;7.318;2024-01-06T09:54:06;100821.79;;;0.13;100.00
47811;BME280;33575;52.600;7.318;2024-01-06T09:56:34;100826.20;;;0.23;100.00
47811;BME280;33575;52.600;7.318;2024-01-06T09:59:04;100826.71;;;0.36;100.00
47811;BME280;33575;52.600;7.318;2024-01-06T10:01:34;100827.75;;;0.40;100.00
47811;BME280;33575;52.600;7.318;2024-01-06T10:04:05;100829.58;;;0.42;100.00
47811;BME280;33575;52.600;7.318;2024-01-06T10:06:35;100831.54;;;0.37;100.00
47811;BME280;33575;52.600;7.318;2024-01-06T10:09:06;100835.29;;;0.43;100.00
47811;BME280;33575;52.600;7.318;2024-01-06T10:11:36;100841.97;;;0.39;100.00
47811;BME280;33575;52.600;7.318;2024-01-06T10:14:06;100843.52;;;0.46;100.00
47811;BME280;33575;52.600;7.318;2024-01-06T10:16:37;100846.98;;;0.38;100.00
47811;BME280;33575;52.600;7.318;2024-01-06T10:19:07;100849.50;;;0.31;100.00
47811;BME280;33575;52.600;7.318;2024-01-06T10:21:38;100849.92;;;0.39;100.00
47811;BME280;33575;52.600;7.318;2024-01-06T10:24:08;100856.58;;;0.49;100.00
47811;BME280;33575;52.600;7.318;2024-01-06T10:26:39;100860.96;;;0.59;100.00
47811;BME280;33575;52.600;7.318;2024-01-06T10:29:09;100861.23;;;0.49;100.00
47811;BME280;33575;52.600;7.318;2024-01-06T10:31:41;100862.00;;;0.28;99.93
47811;BME280;33575;52.600;7.318;2024-01-06T10:34:10;100862.33;;;0.04;100.00
47811;BME280;33575;52.600;7.318;2024-01-06T10:36:41;100864.02;;;-0.05;100.00
47811;BME280;33575;52.600;7.318;2024-01-06T10:39:12;100863.40;;;-0.08;100.00
47811;BME280;33575;52.600;7.318;2024-01-06T10:41:43;100863.30;;;-0.07;100.00
47811;BME280;33575;52.600;7.318;2024-01-06T10:44:14;100863.97;;;-0.07;100.00
47811;BME280;33575;52.600;7.318;2024-01-06T10:46:44;100863.38;;;-0.03;100.00
47811;BME280;33575;52.600;7.318;2024-01-06T10:49:14;100865.47;;;0.00;100.00
47811;BME280;33575;52.600;7.318;2024-01-06T10:51:44;100865.24;;;0.07;100.00
47811;BME280;33575;52.600;7.318;2024-01-06T10:54:14;100868.06;;;0.14;100.00
47811;BME280;33575;52.600;7.318;2024-01-06T10:56:45;100870.80;;;0.22;100.00
47811;BME280;33575;52.600;7.318;2024-01-06T10:59:15;100872.83;;;0.35;100.00
47811;BME280;33575;52.600;7.318;2024-01-06T11:01:46;100876.33;;;0.43;100.00
47811;BME280;33575;52.600;7.318;2024-01-06T11:04:17;100875.77;;;0.45;100.00
47811;BME280;33575;52.600;7.318;2024-01-06T11:06:47;100878.51;;;0.55;100.00
47811;BME280;33575;52.600;7.318;2024-01-06T11:09:22;100878.57;;;0.45;100.00
47811;BME280;33575;52.600;7.318;2024-01-06T11:11:48;100884.46;;;0.49;100.00
47811;BME280;33575;52.600;7.318;2024-01-06T11:14:20;100890.10;;;0.62;100.00
47811;BME280;33575;52.600;7.318;2024-01-06T11:16:50;100894.04;;;0.59;100.00
47811;BME280;33575;52.600;7.318;2024-01-06T11:21:50;100896.03;;;0.39;100.00
47811;BME280;33575;52.600;7.318;2024-01-06T11:24:20;100893.94;;;0.42;100.00
47811;BME280;33575;52.600;7.318;2024-01-06T11:26:52;100896.89;;;0.39;100.00
47811;BME280;33575;52.600;7.318;2024-01-06T11:29:21;100894.35;;;0.55;100.00
47811;BME280;33575;52.600;7.318;2024-01-06T11:34:23;100890.86;;;0.45;100.00
47811;BME280;33575;52.600;7.318;2024-01-06T11:36:53;100893.32;;;0.41;100.00
47811;BME280;33575;52.600;7.318;2024-01-06T11:41:53;100894.37;;;0.35;100.00
47811;BME280;33575;52.600;7.318;2024-01-06T11:44:24;100894.68;;;0.44;100.00
47811;BME280;33575;52.600;7.318;2024-01-06T11:46:56;100898.90;;;0.66;100.00
47811;BME280;33575;52.600;7.318;2024-01-06T11:49:26;100901.42;;;0.83;100.00
47811;BME280;33575;52.600;7.318;2024-01-06T11:51:56;100902.30;;;0.80;100.00
47811;BME280;33575;52.600;7.318;2024-01-06T11:54:25;100904.79;;;0.67;100.00
47811;BME280;33575;52.600;7.318;2024-01-06T11:56:55;100905.61;;;0.51;100.00
47811;BME280;33575;52.600;7.318;2024-01-06T11:59:26;100905.74;;;0.34;100.00
47811;BME280;33575;52.600;7.318;2024-01-06T12:01:56;100907.37;;;0.21;100.00
47811;BME280;33575;52.600;7.318;2024-01-06T12:04:26;100904.35;;;0.42;100.00
47811;BME280;33575;52.600;7.318;2024-01-06T12:07:05;100908.68;;;0.61;100.00
47811;BME280;33575;52.600;7.318;2024-01-06T12:09:26;100909.21;;;0.63;100.00
47811;BME280;33575;52.600;7.318;2024-01-06T12:12:01;100911.00;;;0.47;100.00
47811;BME280;33575;52.600;7.318;2024-01-06T12:14:27;100911.62;;;0.29;98.97
47811;BME280;33575;52.600;7.318;2024-01-06T12:16:58;100911.05;;;0.22;99.48
47811;BME280;33575;52.600;7.318;2024-01-06T12:19:29;100911.56;;;0.15;100.00
47811;BME280;33575;52.600;7.318;2024-01-06T12:21:58;100910.89;;;0.11;99.57
47811;BME280;33575;52.600;7.318;2024-01-06T12:24:29;100911.50;;;0.03;98.68
47811;BME280;33575;52.600;7.318;2024-01-06T12:26:59;100905.74;;;0.01;100.00
47811;BME280;33575;52.600;7.318;2024-01-06T12:29:29;100904.87;;;-0.01;100.00
47811;BME280;33575;52.600;7.318;2024-01-06T12:32:00;100904.15;;;0.11;100.00
47811;BME280;33575;52.600;7.318;2024-01-06T12:34:30;100905.91;;;0.11;100.00
47811;BME280;33575;52.600;7.318;2024-01-06T12:37:01;100908.33;;;0.22;100.00
47811;BME280;33575;52.600;7.318;2024-01-06T12:39:31;100912.01;;;0.26;100.00
47811;BME280;33575;52.600;7.318;2024-01-06T12:42:02;100911.52;;;0.21;100.00
47811;BME280;33575;52.600;7.318;2024-01-06T12:44:31;100913.53;;;0.31;100.00
47811;BME280;33575;52.600;7.318;2024-01-06T12:47:02;100915.43;;;0.18;100.00
47811;BME280;33575;52.600;7.318;2024-01-06T12:49:40;100915.82;;;0.22;100.00
47811;BME280;33575;52.600;7.318;2024-01-06T12:52:09;100918.53;;;0.22;100.00
47811;BME280;33575;52.600;7.318;2024-01-06T12:54:34;100916.90;;;0.25;100.00
47811;BME280;33575;52.600;7.318;2024-01-06T12:57:05;100919.74;;;0.20;100.00
47811;BME280;33575;52.600;7.318;2024-01-06T12:59:35;100924.65;;;0.34;100.00
47811;BME280;33575;52.600;7.318;2024-01-06T13:02:05;100924.77;;;0.45;100.00
47811;BME280;33575;52.600;7.318;2024-01-06T13:04:36;100928.56;;;0.44;100.00
47811;BME280;33575;52.600;7.318;2024-01-06T13:07:07;100933.24;;;0.60;100.00
47811;BME280;33575;52.600;7.318;2024-01-06T13:09:38;100935.51;;;0.66;100.00
47811;BME280;33575;52.600;7.318;2024-01-06T13:12:07;100937.91;;;0.66;100.00